Time;durP1;ratioP1;P1;durP2;ratioP2;P2;SDS_P1;SDS_P2;PMS_P1;PMS_P2;Temp;Humidity;BMP_temperature;BMP_pressure;BME280_temperature;BME280_humidity;BME280_pressure;Samples;Min_cycle;Max_cycle;Signal;HPM_P1;HPM_P2
2022/07/28 00:02:19;;;;;;;2.90;0.90;;;;;;;16.70;46.97;99894.81;12213579;19;19949;-84
2022/07/28 00:06:22;;;;;;;;;;;;;;;16.66;46.76;99887.31;12206530;19;20349;-83
2022/07/28 00:10:24;;;;;;;1.88;0.90;;;;;;;16.60;47.06;99880.97;12194866;19;19921;-84
2022/07/28 00:14:28;;;;;;;2.70;0.90;;;;;;;16.53;47.15;99867.38;12215452;19;20011;-84
2022/07/28 00:18:30;;;;;;;2.92;0.90;;;;;;;16.49;47.40;99865.47;12204456;19;20026;-84
2022/07/28 00:22:32;;;;;;;3.60;1.00;;;;;;;16.44;47.87;99865.47;12184879;19;20014;-84
2022/07/28 00:26:34;;;;;;;2.28;0.80;;;;;;;16.39;47.83;99863.56;12205989;19;20068;-84
2022/07/28 00:30:35;;;;;;;3.60;1.30;;;;;;;16.33;47.88;99860.00;12213870;19;20223;-84
2022/07/28 00:34:37;;;;;;;6.20;1.10;;;;;;;16.27;48.53;99861.16;12186099;19;20038;-82
2022/07/28 00:38:42;;;;;;;4.57;1.10;;;;;;;16.25;48.16;99866.16;12213026;19;20011;-81
2022/07/28 00:42:49;;;;;;;6.85;0.90;;;;;;;16.21;48.07;99855.88;12196775;19;20356;-81
2022/07/28 00:46:52;;;;;;;3.65;0.88;;;;;;;16.14;48.35;99861.75;12212598;19;20473;-82
2022/07/28 00:50:54;;;;;;;4.80;1.15;;;;;;;16.09;48.78;99862.63;12206356;19;20010;-84
2022/07/28 00:54:57;;;;;;;2.88;0.98;;;;;;;16.04;49.30;99856.25;12178998;19;20023;-80
2022/07/28 00:59:00;;;;;;;3.75;0.93;;;;;;;16.03;49.48;99849.00;12214729;19;20019;-80
2022/07/28 01:03:04;;;;;;;3.30;0.82;;;;;;;15.99;49.20;99848.75;12200789;19;20509;-80
2022/07/28 01:07:18;;;;;;;3.42;1.20;;;;;;;15.93;49.33;99845.16;12178303;19;20010;-81
2022/07/28 01:11:44;;;;;;;3.03;0.80;;;;;;;15.85;50.05;99837.41;12210586;19;20397;-80
2022/07/28 01:15:54;;;;;;;1.95;0.73;;;;;;;15.79;50.06;99837.72;12187922;19;20014;-80
2022/07/28 01:20:08;;;;;;;4.85;0.68;;;;;;;15.74;50.47;99833.03;12215406;19;20392;-79
2022/07/28 01:24:25;;;;;;;2.35;0.90;;;;;;;15.69;50.64;99833.03;12202770;19;20027;-79
2022/07/28 01:28:45;;;;;;;6.32;0.95;;;;;;;15.64;50.78;99828.28;12187338;19;20043;-79
2022/07/28 01:32:56;;;;;;;5.63;1.10;;;;;;;15.61;50.40;99826.09;12195668;19;20042;-80
2022/07/28 01:37:05;;;;;;;6.85;0.90;;;;;;;15.57;50.69;99829.72;12189478;19;19995;-81
2022/07/28 01:41:13;;;;;;;3.08;1.13;;;;;;;15.55;50.82;99837.50;12197865;19;20048;-80
2022/07/28 01:45:18;;;;;;;7.85;1.40;;;;;;;15.53;51.07;99828.59;12215717;19;20430;-81
2022/07/28 01:49:22;;;;;;;2.70;1.05;;;;;;;15.49;51.19;99822.78;12192313;19;20010;-80
2022/07/28 01:53:25;;;;;;;2.53;1.00;;;;;;;15.47;50.92;99816.72;12221822;19;20070;-81
2022/07/28 01:57:29;;;;;;;3.13;0.80;;;;;;;15.43;51.19;99813.63;12209761;19;20007;-81
2022/07/28 02:01:35;;;;;;;3.67;1.30;;;;;;;15.44;50.82;99808.94;12175328;19;20087;-81
2022/07/28 02:05:40;;;;;;;1.85;0.80;;;;;;;15.44;51.05;99801.44;12203266;19;20543;-81
2022/07/28 02:09:44;;;;;;;4.20;0.90;;;;;;;15.47;51.54;99797.28;12188765;19;20074;-81
2022/07/28 02:13:49;;;;;;;4.07;0.82;;;;;;;15.52;51.07;99793.63;12204130;19;20078;-81
2022/07/28 02:17:52;;;;;;;2.35;0.80;;;;;;;15.52;51.25;99785.28;12201775;19;20073;-81
2022/07/28 02:21:55;;;;;;;3.90;1.08;;;;;;;15.54;50.67;99792.22;12179514;19;20485;-81
2022/07/28 02:25:59;;;;;;;3.30;0.85;;;;;;;15.51;51.10;99787.25;12206644;19;20082;-82
2022/07/28 02:30:11;;;;;;;1.63;1.00;;;;;;;15.50;51.18;99780.88;12192750;19;20087;-81
2022/07/28 02:34:14;;;;;;;3.78;1.10;;;;;;;15.50;51.18;99774.50;12177415;19;20006;-81
2022/07/28 02:38:30;;;;;;;3.13;0.82;;;;;;;15.49;51.06;99775.59;12213140;19;20014;-82
2022/07/28 02:42:34;;;;;;;1.67;0.88;;;;;;;15.49;51.21;99770.84;12238054;19;20019;-82
2022/07/28 02:46:42;;;;;;;2.85;1.05;;;;;;;15.54;51.16;99763.63;12180733;19;20008;-83
2022/07/28 02:50:45;;;;;;;4.03;1.05;;;;;;;15.58;50.87;99764.72;12201480;19;20018;-82
2022/07/28 02:54:48;;;;;;;2.50;1.30;;;;;;;15.61;50.89;99758.59;12176907;19;20532;-81
2022/07/28 02:58:53;;;;;;;3.40;0.90;;;;;;;15.58;51.11;99751.66;12206424;19;20077;-81
2022/07/28 03:02:55;;;;;;;3.70;1.33;;;;;;;15.62;50.70;99749.16;12203771;19;20015;-82
2022/07/28 03:06:57;;;;;;;4.53;1.10;;;;;;;15.64;50.67;99747.75;12182493;19;20015;-81
2022/07/28 03:11:09;;;;;;;4.85;1.25;;;;;;;15.68;50.79;99748.06;12201141;19;20062;-81
2022/07/28 03:15:10;;;;;;;2.95;1.35;;;;;;;15.69;50.81;99753.31;12192536;19;20119;-81
2022/07/28 03:19:12;;;;;;;3.22;0.95;;;;;;;15.68;50.54;99753.63;12187563;19;20010;-80
2022/07/28 03:23:15;;;;;;;4.00;1.00;;;;;;;15.65;50.92;99759.72;12203111;19;20094;-82
2022/07/28 03:27:23;;;;;;;1.92;0.70;;;;;;;15.59;50.89;99760.84;12211117;19;20082;-79
2022/07/28 03:31:26;;;;;;;2.22;1.00;;;;;;;15.58;50.78;99764.72;12170061;19;20520;-80
2022/07/28 03:35:31;;;;;;;3.08;0.98;;;;;;;15.58;50.73;99761.94;12219357;19;20027;-81
2022/07/28 03:39:37;;;;;;;3.00;1.00;;;;;;;15.50;51.20;99761.44;12223419;19;20110;-81
2022/07/28 03:43:40;;;;;;;5.55;1.00;;;;;;;15.45;51.36;99760.63;12205257;19;20081;-81
2022/07/28 03:47:50;;;;;;;1.07;0.93;;;;;;;15.43;51.43;99760.88;12215262;19;20027;-80
2022/07/28 03:51:51;;;;;;;4.03;1.00;;;;;;;15.40;51.36;99761.44;12200010;19;20125;-79
2022/07/28 03:55:53;;;;;;;2.92;0.90;;;;;;;15.42;51.27;99766.72;12212064;19;20110;-81
2022/07/28 03:59:55;;;;;;;2.95;1.00;;;;;;;15.39;51.49;99762.56;12220529;19;20066;-81
2022/07/28 04:03:56;;;;;;;2.72;1.15;;;;;;;15.40;51.58;99763.41;12197193;19;20082;-80
2022/07/28 04:07:58;;;;;;;4.00;0.90;;;;;;;15.40;51.60;99763.41;12217691;19;20014;-82
2022/07/28 04:11:59;;;;;;;3.22;1.33;;;;;;;15.39;51.46;99757.03;12207640;19;20094;-80
2022/07/28 04:16:02;;;;;;;5.32;1.30;;;;;;;15.45;51.99;99755.06;12198640;19;20016;-81
2022/07/28 04:20:04;;;;;;;2.17;1.00;;;;;;;15.53;51.76;99750.84;12224465;19;20110;-80
2022/07/28 04:24:08;;;;;;;3.63;1.00;;;;;;;15.56;51.88;99758.63;12225449;19;20540;-77
2022/07/28 04:28:10;;;;;;;2.72;1.42;;;;;;;15.64;51.39;99749.69;12190870;19;20011;-80
2022/07/28 04:32:12;;;;;;;4.90;1.20;;;;;;;15.71;51.31;99747.50;12218484;19;20084;-80
2022/07/28 04:36:13;;;;;;;8.65;2.00;;;;;;;15.78;51.30;99758.28;12218975;19;20452;-80
2022/07/28 04:40:16;;;;;;;1.50;1.00;;;;;;;15.77;51.44;99751.91;12199203;19;20069;-81
2022/07/28 04:44:20;;;;;;;4.97;1.83;;;;;;;15.85;51.65;99750.44;12222432;19;20232;-82
2022/07/28 04:48:22;;;;;;;4.20;0.90;;;;;;;15.91;51.33;99749.31;12202898;19;20026;-83
2022/07/28 04:52:26;;;;;;;3.28;1.00;;;;;;;15.98;51.17;99749.00;12184963;19;20334;-80
2022/07/28 04:56:27;;;;;;;1.77;0.88;;;;;;;16.04;50.91;99745.91;12195942;19;20006;-81
2022/07/28 05:00:29;;;;;;;2.55;1.13;;;;;;;16.12;51.00;99752.78;12208088;19;20010;-82
2022/07/28 05:04:31;;;;;;;3.42;0.80;;;;;;;16.18;50.94;99755.28;12183200;19;20014;-81
2022/07/28 05:08:35;;;;;;;3.42;1.25;;;;;;;16.24;50.65;99760.78;12204810;19;20018;-81
2022/07/28 05:12:37;;;;;;;2.90;1.10;;;;;;;16.33;50.84;99768.22;12206451;19;20326;-82
2022/07/28 05:16:38;;;;;;;3.08;1.20;;;;;;;16.38;50.64;99768.16;12186335;19;20101;-80
2022/07/28 05:20:40;;;;;;;3.27;1.17;;;;;;;16.49;50.70;99765.34;12212313;19;20452;-79
2022/07/28 05:24:43;;;;;;;3.43;1.10;;;;;;;16.55;50.58;99765.00;12191334;19;20484;-80
2022/07/28 05:28:44;;;;;;;4.45;1.20;;;;;;;16.57;50.50;99764.72;12199267;19;20021;-81
2022/07/28 05:32:49;;;;;;;3.67;1.02;;;;;;;16.66;50.33;99765.75;12203562;19;20105;-80
2022/07/28 05:36:51;;;;;;;2.58;1.20;;;;;;;16.78;50.48;99770.97;12188884;19;20069;-82
2022/07/28 05:40:53;;;;;;;4.97;1.40;;;;;;;16.85;50.30;99769.50;12213102;19;20010;-81
2022/07/28 05:44:54;;;;;;;4.88;1.25;;;;;;;16.91;50.06;99775.00;12207441;19;20007;-82
2022/07/28 05:48:56;;;;;;;4.50;1.10;;;;;;;16.91;50.40;99766.66;12182564;19;20062;-81
2022/07/28 05:52:58;;;;;;;4.43;1.30;;;;;;;17.05;50.41;99770.44;12209173;19;20006;-81
2022/07/28 05:57:01;;;;;;;2.70;1.25;;;;;;;17.11;50.22;99769.25;12214572;19;20006;-82
2022/07/28 06:01:03;;;;;;;6.03;1.20;;;;;;;17.07;50.31;99780.16;12197961;19;20007;-82
2022/07/28 06:05:06;;;;;;;3.20;1.40;;;;;;;17.05;50.52;99782.38;12213637;19;20047;-80
2022/07/28 06:09:07;;;;;;;3.80;1.08;;;;;;;17.06;50.21;99780.44;12210419;19;20479;-81
2022/07/28 06:13:13;;;;;;;1.88;0.98;;;;;;;17.10;50.43;99787.06;12185905;19;20093;-80
2022/07/28 06:17:15;;;;;;;3.85;0.95;;;;;;;17.10;50.85;99781.50;12215541;19;20014;-79
2022/07/28 06:21:17;;;;;;;3.55;1.10;;;;;;;17.19;50.86;99781.69;12211480;19;20002;-79
2022/07/28 06:25:20;;;;;;;;;;;;;;;17.31;50.49;99782.09;12187460;19;20011;-80
2022/07/28 06:29:23;;;;;;;6.53;1.50;;;;;;;17.54;50.21;99777.66;12199421;19;19922;-82
2022/07/28 06:33:25;;;;;;;7.43;1.15;;;;;;;17.73;50.07;99775.78;12207986;19;20010;-80
2022/07/28 06:37:26;;;;;;;6.22;1.15;;;;;;;17.98;49.58;99779.38;12191739;19;20544;-81
2022/07/28 06:41:29;;;;;;;5.95;1.17;;;;;;;18.08;49.29;99784.78;12197558;19;20484;-81
2022/07/28 06:45:30;;;;;;;3.85;1.10;;;;;;;18.18;49.66;99781.88;12200297;19;20074;-81
2022/07/28 06:49:33;;;;;;;3.13;1.10;;;;;;;18.24;49.65;99784.59;12172318;19;20026;-81
2022/07/28 06:53:35;;;;;;;3.65;1.67;;;;;;;18.19;49.57;99775.16;12198966;19;20082;-80
2022/07/28 06:57:36;;;;;;;4.78;1.08;;;;;;;18.37;49.63;99781.03;12169662;19;20010;-80
2022/07/28 07:01:38;;;;;;;4.90;1.30;;;;;;;18.64;49.65;99783.13;12179438;19;20083;-79
2022/07/28 07:05:40;;;;;;;2.75;1.15;;;;;;;18.90;48.83;99778.78;12201239;19;20078;-82
2022/07/28 07:09:42;;;;;;;4.55;1.05;;;;;;;18.94;48.43;99772.59;12194773;19;20532;-84
2022/07/28 07:13:44;;;;;;;5.05;1.40;;;;;;;18.96;48.51;99779.53;12203756;19;20010;-79
2022/07/28 07:17:45;;;;;;;2.10;1.10;;;;;;;19.21;48.34;99780.19;12206836;19;20097;-80
2022/07/28 07:21:48;;;;;;;3.80;1.25;;;;;;;19.57;48.02;99780.31;12179453;19;20002;-80
2022/07/28 07:25:49;;;;;;;6.65;1.65;;;;;;;19.91;47.96;99779.94;12212663;19;20082;-81
2022/07/28 07:29:51;;;;;;;5.22;1.50;;;;;;;20.04;47.44;99767.06;12201312;19;20630;-79
2022/07/28 07:33:53;;;;;;;4.55;1.30;;;;;;;20.33;47.26;99775.06;12181839;19;20963;-80
2022/07/28 07:37:54;;;;;;;6.18;1.30;;;;;;;20.57;46.44;99765.59;12204077;19;20464;-81
2022/07/28 07:41:56;;;;;;;4.55;1.30;;;;;;;20.73;46.17;99757.63;12199151;19;20011;-83
2022/07/28 07:45:58;;;;;;;6.75;1.52;;;;;;;20.93;45.49;99757.91;12186739;19;20010;-83
2022/07/28 07:50:00;;;;;;;4.53;1.50;;;;;;;21.24;45.56;99761.88;12209510;19;20011;-82
2022/07/28 07:54:06;;;;;;;2.42;1.48;;;;;;;21.59;44.79;99762.88;12198855;19;20006;-85
2022/07/28 07:58:10;;;;;;;3.53;1.30;;;;;;;21.74;44.77;99758.81;12177359;19;20002;-80
2022/07/28 08:02:12;;;;;;;6.25;1.50;;;;;;;22.02;44.42;99759.38;12195592;19;20047;-82
2022/07/28 08:06:13;;;;;;;4.55;1.40;;;;;;;22.07;43.62;99759.19;12195799;19;20516;-82
2022/07/28 08:10:16;;;;;;;8.60;1.63;;;;;;;21.91;44.09;99752.41;12169470;19;20741;-79
2022/07/28 08:14:17;;;;;;;4.53;1.40;;;;;;;21.91;44.15;99758.03;12194361;19;20032;-82
2022/07/28 08:18:20;;;;;;;6.33;1.87;;;;;;;21.93;44.73;99755.72;12195718;19;20017;-84
2022/07/28 08:22:22;;;;;;;7.20;1.77;;;;;;;22.17;44.74;99755.31;12184309;19;20084;-82
2022/07/28 08:26:24;;;;;;;7.57;1.50;;;;;;;22.52;44.24;99754.16;12209868;19;20010;-81
2022/07/28 08:30:26;;;;;;;3.70;1.83;;;;;;;22.84;43.78;99751.13;12215768;19;20011;-83
2022/07/28 08:34:34;;;;;;;3.00;1.63;;;;;;;23.18;42.62;99748.25;12189045;19;20011;-82
2022/07/28 08:38:36;;;;;;;4.97;1.40;;;;;;;23.86;42.58;99742.69;12203733;19;20018;-83
2022/07/28 08:42:48;;;;;;;3.50;1.55;;;;;;;24.04;41.80;99742.56;12212661;19;20022;-83
2022/07/28 08:46:50;;;;;;;6.25;1.75;;;;;;;24.17;41.97;99749.09;12185696;19;20018;-83
2022/07/28 08:50:53;;;;;;;4.67;1.63;;;;;;;24.55;41.39;99752.63;12209903;19;20010;-81
2022/07/28 08:55:01;;;;;;;4.57;1.55;;;;;;;24.78;40.27;99749.44;12180949;19;20013;-85
2022/07/28 08:59:02;;;;;;;4.38;2.17;;;;;;;24.88;41.01;99743.34;12203099;19;20788;-84
2022/07/28 09:03:05;;;;;;;5.18;2.08;;;;;;;24.90;40.99;99745.84;12192382;19;20047;-87
2022/07/28 09:07:15;;;;;;;5.70;2.50;;;;;;;25.26;40.16;99742.31;12186788;19;20003;-84
2022/07/28 09:11:18;;;;;;;4.65;2.40;;;;;;;25.82;39.07;99736.09;12213690;19;20006;-84
2022/07/28 09:15:19;;;;;;;5.40;2.13;;;;;;;26.56;38.37;99733.97;12212914;19;20061;-85
2022/07/28 09:19:21;;;;;;;6.90;2.22;;;;;;;26.93;36.61;99728.16;12196668;19;20014;-85
2022/07/28 09:23:23;;;;;;;3.55;1.92;;;;;;;27.26;36.88;99727.84;12208263;19;20002;-85
2022/07/28 09:27:44;;;;;;;2.80;1.55;;;;;;;27.50;36.01;99718.34;12199218;19;20031;-85
2022/07/28 09:31:52;;;;;;;3.20;2.28;;;;;;;27.47;35.65;99719.09;12213870;19;20010;-84
2022/07/28 09:35:58;;;;;;;4.95;2.15;;;;;;;27.50;35.91;99718.34;12215428;19;20010;-84
2022/07/28 09:40:10;;;;;;;3.55;1.98;;;;;;;27.60;35.49;99711.31;12189480;19;20682;-83
2022/07/28 09:44:22;;;;;;;5.07;1.98;;;;;;;27.30;35.50;99708.13;12211263;19;20009;-85
2022/07/28 09:48:24;;;;;;;3.23;1.87;;;;;;;27.33;35.17;99719.53;12204703;19;20014;-86
2022/07/28 09:52:34;;;;;;;4.32;1.63;;;;;;;27.47;34.69;99716.25;12190403;19;20060;-85
2022/07/28 09:56:38;;;;;;;6.60;1.83;;;;;;;27.66;35.02;99707.84;12208775;19;20445;-86
2022/07/28 11:04:41;;;;;;;5.65;2.15;;;;;;;28.31;31.81;99672.50;12232763;19;19933;-87
2022/07/28 11:09:48;;;;;;;3.53;1.73;;;;;;;28.58;32.17;99665.78;12193125;19;20007;-85
2022/07/28 11:14:15;;;;;;;5.75;2.10;;;;;;;28.81;32.01;99656.50;12183565;19;20077;-87
2022/07/28 11:19:13;;;;;;;6.07;1.98;;;;;;;29.16;31.58;99650.69;12199913;19;20006;-88
2022/07/28 11:23:48;;;;;;;3.80;1.90;;;;;;;29.42;30.89;99651.91;12197177;19;20014;-87
2022/07/28 11:27:53;;;;;;;5.67;1.60;;;;;;;29.82;30.24;99650.53;12168576;19;20030;-87
2022/07/28 11:31:56;;;;;;;5.68;2.92;;;;;;;30.34;29.34;99646.78;12196346;19;20035;-86
2022/07/28 15:15:31;;;;;;;4.65;2.10;;;;;;;28.42;30.05;99514.88;12205803;19;20054;-83
2022/07/28 16:19:25;;;;;;;3.03;1.80;;;;;;;29.60;29.32;99461.97;12206712;19;20462;-83
2022/07/28 16:23:47;;;;;;;4.80;1.90;;;;;;;29.61;29.21;99452.25;12204697;19;20010;-81
2022/07/28 16:27:52;;;;;;;5.78;2.10;;;;;;;29.69;29.27;99451.19;12176997;19;20028;-80
2022/07/28 16:31:54;;;;;;;2.67;1.80;;;;;;;29.82;28.99;99446.84;12201904;19;20006;-82
2022/07/28 16:35:56;;;;;;;5.07;2.17;;;;;;;29.84;29.13;99446.47;12205312;19;20003;-82
2022/07/28 16:39:57;;;;;;;4.75;2.20;;;;;;;29.63;29.25;99436.50;12183376;19;20018;-81
2022/07/28 16:44:00;;;;;;;5.32;2.28;;;;;;;29.49;29.41;99428.59;12234902;19;20059;-83
2022/07/28 16:48:04;;;;;;;3.88;2.00;;;;;;;29.21;29.77;99436.72;12209262;19;20011;-83
2022/07/28 16:52:06;;;;;;;7.13;2.08;;;;;;;29.13;29.92;99437.84;12188529;19;21253;-84
2022/07/28 16:56:07;;;;;;;;;;;;;;;29.00;29.93;99437.22;12211213;19;20017;-83
2022/07/28 17:00:10;;;;;;;5.47;2.20;;;;;;;28.88;30.04;99428.94;12208640;19;19919;-82
2022/07/28 17:04:13;;;;;;;4.57;2.20;;;;;;;28.57;30.17;99436.59;12181805;19;20007;-83
2022/07/28 17:08:15;;;;;;;5.95;2.08;;;;;;;28.25;30.67;99431.16;12201714;19;20144;-81
2022/07/28 17:12:20;;;;;;;3.60;1.90;;;;;;;28.04;31.20;99433.59;12206345;19;20014;-80
2022/07/28 17:16:21;;;;;;;4.20;2.00;;;;;;;27.89;31.30;99429.69;12192374;19;20031;-80
2022/07/28 17:20:24;;;;;;;4.15;2.20;;;;;;;27.84;31.58;99432.81;12207734;19;20003;-81
2022/07/28 17:24:29;;;;;;;5.47;1.98;;;;;;;27.85;31.31;99428.81;12212203;19;20033;-81
2022/07/28 17:28:31;;;;;;;4.28;1.90;;;;;;;27.83;31.64;99422.69;12187710;19;20337;-80
2022/07/28 17:32:36;;;;;;;4.25;2.28;;;;;;;27.85;31.85;99426.00;12207740;19;20024;-81
2022/07/28 17:36:38;;;;;;;4.00;1.80;;;;;;;27.83;31.66;99422.69;12216051;19;20018;-81
2022/07/28 17:40:42;;;;;;;5.15;2.42;;;;;;;27.83;32.18;99425.53;12183580;19;20007;-80
2022/07/28 17:44:44;;;;;;;4.70;2.00;;;;;;;27.71;32.20;99420.81;12220750;19;20024;-81
2022/07/28 17:48:48;;;;;;;2.95;2.13;;;;;;;27.59;31.77;99415.34;12197440;19;20030;-86
2022/07/28 17:52:51;;;;;;;5.30;2.13;;;;;;;27.44;31.99;99414.22;12215572;19;20019;-86
2022/07/28 17:56:55;;;;;;;4.22;2.13;;;;;;;27.26;32.41;99409.00;12210020;19;20039;-85
2022/07/28 18:01:01;;;;;;;3.42;1.85;;;;;;;27.04;32.95;99412.56;12187354;19;20031;-85
2022/07/28 18:05:13;;;;;;;6.95;2.10;;;;;;;26.87;32.96;99421.44;12205039;19;20021;-85
2022/07/28 18:09:24;;;;;;;4.63;2.58;;;;;;;26.78;33.19;99416.81;12229354;19;20027;-84
2022/07/28 18:13:27;;;;;;;3.83;2.05;;;;;;;26.69;33.59;99413.38;12187882;19;20016;-85
2022/07/28 18:17:31;;;;;;;6.15;2.17;;;;;;;26.55;33.89;99418.69;12221210;19;20006;-85
2022/07/28 19:11:18;;;;;;;3.88;1.80;;;;;;;24.24;37.91;99454.59;12204270;19;20022;-84
2022/07/28 19:15:21;;;;;;;4.70;2.22;;;;;;;24.04;38.14;99461.13;12203912;19;20007;-85
2022/07/28 19:19:22;;;;;;;6.43;2.00;;;;;;;23.87;38.90;99451.69;12178602;19;20011;-83
2022/07/28 19:23:24;;;;;;;3.78;1.73;;;;;;;23.74;38.62;99454.81;12208719;19;20090;-83
2022/07/28 19:27:26;;;;;;;9.30;2.15;;;;;;;23.63;39.06;99463.66;12203232;19;20014;-83
2022/07/28 19:31:31;;;;;;;4.97;2.42;;;;;;;23.57;39.02;99458.59;12169819;19;20031;-84
2022/07/28 19:35:33;;;;;;;4.57;2.13;;;;;;;23.53;39.10;99472.53;12205472;19;20394;-84
2022/07/28 19:39:36;;;;;;;6.63;2.17;;;;;;;23.43;39.50;99470.13;12207714;19;20011;-84
2022/07/28 19:43:45;;;;;;;4.72;2.50;;;;;;;23.30;39.72;99466.44;12176650;19;20011;-81
2022/07/28 19:47:47;;;;;;;6.05;2.35;;;;;;;23.26;39.32;99468.28;12204930;19;20062;-82
2022/07/28 19:51:50;;;;;;;4.47;2.17;;;;;;;23.19;39.91;99468.81;12192517;19;20049;-82
2022/07/28 19:55:55;;;;;;;3.00;2.30;;;;;;;23.15;39.67;99470.69;12208545;19;20011;-83
2022/07/28 20:00:00;;;;;;;5.38;2.10;;;;;;;23.10;39.83;99468.06;12207279;19;20267;-82
2022/07/28 20:04:12;;;;;;;4.93;2.35;;;;;;;23.03;40.10;99476.22;12183580;19;20018;-82
2022/07/28 20:08:14;;;;;;;5.13;2.10;;;;;;;23.00;40.21;99482.53;12194300;19;20018;-83
2022/07/28 20:12:19;;;;;;;5.53;2.58;;;;;;;22.94;40.40;99478.25;12202315;19;20690;-82
2022/07/28 20:16:23;;;;;;;4.53;2.50;;;;;;;22.90;40.63;99482.88;12182629;19;20026;-82
2022/07/28 20:20:25;;;;;;;5.43;2.50;;;;;;;22.83;40.65;99491.03;12223269;19;20014;-82
2022/07/28 20:24:27;;;;;;;3.83;2.00;;;;;;;22.72;40.66;99491.41;12210922;19;20010;-81
2022/07/28 20:28:29;;;;;;;3.90;2.42;;;;;;;22.67;41.39;99500.03;12202138;19;20014;-82
2022/07/28 20:32:31;;;;;;;6.10;1.93;;;;;;;22.62;41.34;99500.22;12214355;19;20968;-82
2022/07/28 20:36:33;;;;;;;3.70;2.25;;;;;;;22.58;41.78;99507.69;12207303;19;20274;-82
2022/07/28 20:40:35;;;;;;;7.47;2.20;;;;;;;22.55;41.75;99510.31;12192723;19;20033;-81
2022/07/28 20:44:38;;;;;;;4.47;2.67;;;;;;;22.47;41.97;99518.47;12219229;19;20031;-82
2022/07/28 20:48:40;;;;;;;4.50;2.30;;;;;;;22.39;42.37;99516.50;12208773;19;20019;-82
2022/07/28 20:52:42;;;;;;;6.90;2.37;;;;;;;22.36;42.16;99514.38;12191668;19;20003;-82
2022/07/28 20:56:43;;;;;;;8.95;2.33;;;;;;;22.33;42.37;99520.66;12209543;19;20117;-82
2022/07/28 21:00:45;;;;;;;5.57;2.42;;;;;;;22.30;42.25;99526.94;12203999;19;20015;-82
2022/07/28 21:04:47;;;;;;;4.57;2.30;;;;;;;22.22;42.67;99517.41;12185036;19;20014;-82
2022/07/28 21:08:50;;;;;;;7.70;2.03;;;;;;;22.20;42.63;99530.94;12208726;19;20010;-82
2022/07/28 21:12:54;;;;;;;4.60;2.25;;;;;;;22.19;42.99;99545.28;12197113;19;20030;-83
2022/07/28 21:16:57;;;;;;;3.88;2.30;;;;;;;22.18;43.08;99550.09;12220050;19;20014;-83
2022/07/28 21:20:59;;;;;;;4.70;2.50;;;;;;;22.21;42.71;99542.97;12216652;19;20007;-83
2022/07/28 21:25:00;;;;;;;6.60;2.13;;;;;;;22.20;42.76;99549.75;12199149;19;20007;-83
2022/07/28 21:29:11;;;;;;;4.93;2.07;;;;;;;22.16;43.08;99545.94;12212006;19;20007;-83
2022/07/28 21:33:13;;;;;;;5.80;1.95;;;;;;;22.16;42.81;99545.94;12221812;19;20003;-84
2022/07/28 21:37:23;;;;;;;5.10;2.17;;;;;;;22.08;43.09;99540.00;12200922;19;20492;-83
2022/07/28 21:41:25;;;;;;;5.45;1.85;;;;;;;22.09;42.99;99540.84;12219705;19;20006;-83
2022/07/28 21:45:37;;;;;;;6.95;2.55;;;;;;;22.06;43.22;99544.31;12211497;19;20448;-83
2022/07/28 21:49:38;;;;;;;4.65;2.40;;;;;;;21.98;43.80;99546.00;12193011;19;20015;-82
2022/07/28 21:53:41;;;;;;;4.80;2.03;;;;;;;21.92;43.31;99552.09;12212606;19;20020;-83
2022/07/28 21:57:42;;;;;;;7.25;2.35;;;;;;;21.88;43.96;99540.72;12213358;19;20014;-81
2022/07/28 22:01:44;;;;;;;6.78;2.55;;;;;;;21.85;44.23;99547.81;12183182;19;20383;-81
2022/07/28 22:05:45;;;;;;;4.85;2.40;;;;;;;21.80;44.21;99544.34;12202440;19;20015;-81
2022/07/28 22:09:47;;;;;;;5.05;1.90;;;;;;;21.81;43.67;99540.41;12199694;19;20027;-81
2022/07/28 22:13:49;;;;;;;8.55;2.20;;;;;;;21.82;43.70;99548.47;12205141;19;20007;-81
2022/07/28 22:17:51;;;;;;;3.25;2.05;;;;;;;21.88;43.60;99545.50;12203741;19;20006;-81
2022/07/28 22:21:52;;;;;;;6.70;1.98;;;;;;;21.87;43.31;99532.63;12183770;19;20014;-81
2022/07/28 22:25:54;;;;;;;4.25;2.13;;;;;;;21.89;43.43;99535.91;12212258;19;20095;-81
2022/07/28 22:29:56;;;;;;;6.25;2.20;;;;;;;21.91;43.20;99536.41;12209702;19;20018;-81
2022/07/28 22:33:57;;;;;;;3.17;2.00;;;;;;;21.94;42.92;99541.34;12195279;19;20007;-81
2022/07/28 22:37:59;;;;;;;4.07;2.40;;;;;;;21.97;43.27;99546.31;12212161;19;20070;-81
2022/07/28 22:42:04;;;;;;;4.97;2.63;;;;;;;21.94;43.27;99547.78;12197675;19;20026;-82
2022/07/28 22:46:08;;;;;;;6.17;2.40;;;;;;;21.94;42.93;99538.56;12185862;19;20031;-82
2022/07/28 22:50:10;;;;;;;4.70;2.28;;;;;;;21.94;43.10;99532.94;12216391;19;20007;-82
2022/07/28 22:54:12;;;;;;;4.78;2.50;;;;;;;21.96;42.90;99527.84;12204313;19;20011;-82
2022/07/28 22:58:14;;;;;;;4.25;2.30;;;;;;;21.97;42.95;99527.50;12188153;19;20011;-82
2022/07/28 23:02:18;;;;;;;3.38;1.90;;;;;;;21.97;42.32;99518.25;12207036;19;20011;-81
2022/07/28 23:06:20;;;;;;;;;;;;;;;21.96;42.46;99522.22;12204543;19;20381;-81
2022/07/28 23:10:21;;;;;;;8.73;2.20;;;;;;;21.98;42.73;99523.53;12182914;19;19970;-81
2022/07/28 23:14:23;;;;;;;3.45;1.88;;;;;;;22.02;42.25;99518.09;12199111;19;20015;-82
2022/07/28 23:18:29;;;;;;;4.40;2.00;;;;;;;22.08;42.84;99522.38;12209265;19;20006;-82
2022/07/28 23:22:30;;;;;;;4.75;2.13;;;;;;;22.13;42.32;99535.38;12182622;19;20013;-83
2022/07/28 23:26:32;;;;;;;2.97;1.45;;;;;;;22.14;42.18;99535.06;12194955;19;20094;-83
2022/07/28 23:30:34;;;;;;;8.00;2.00;;;;;;;22.20;42.38;99556.19;12201434;19;20436;-83
2022/07/28 23:34:36;;;;;;;4.15;2.00;;;;;;;22.24;41.94;99585.22;12175799;19;20731;-83
2022/07/28 23:38:37;;;;;;;4.45;2.30;;;;;;;22.30;42.08;99597.13;12205003;19;20484;-81
2022/07/28 23:42:39;;;;;;;5.97;2.43;;;;;;;22.26;42.24;99602.56;12195017;19;20006;-82
2022/07/28 23:46:41;;;;;;;8.55;2.30;;;;;;;22.20;42.28;99603.91;12174451;19;20023;-81
2022/07/28 23:50:43;;;;;;;4.05;1.92;;;;;;;22.03;43.71;99595.47;12205937;19;20361;-82
2022/07/28 23:54:45;;;;;;;4.57;1.88;;;;;;;21.87;44.05;99583.94;12207500;19;20027;-81
2022/07/28 23:58:46;;;;;;;4.18;2.20;;;;;;;21.66;44.80;99580.97;12209036;19;20014;-82
